Felker Army Air Field
KFAF : now visible

Airfield :











YOU CAN JOIN US ON...

 
LOGIN :

Register | Disclaimer

   EN    FR    IT 

 









Legend :    VFR   Marginal VFR   IFR   Intensive IFR   Very Intensive IFR
Visi :
Ceiling :
>= 8 km
>= 3000ft
5 to 8 km
1000 to 3000 ft
1500m to 5 km
500 to 1000 ft
800 to 1500m
200 to 500 ft
< 800m
< 200 ft
Symbols :   Thunderstorms  Fog  Heavy snow  Heavy precipitations  Wind > 20 kt






- Airport Elevation : 12 ft


KFAF - Felker Army Air Field

CURRENT METAR :
  • 220456Z AUTO 00000KT 10SM CLR M01/M08 A3042 RMK AO2 SLP305 T10091084 400291030 $

EXPIRED METARs :
  • 220356Z AUTO 02007KT 10SM CLR M01/M08 A3042 RMK AO2 SLP305 T10071084 $
  • 220256Z 02004KT 10SM CLR M01/M09 A3044 RMK AO2A SLP311 T10091088 58000 $

TAF TAF KFAF
Valid from the 21 at 19:00 until the 23 at 01:00 UTC


211900Z 2119/2301 02012G18KT 9999 FEW120 QNH3031INS
BECMG 2121/2122 02012KT 9999 SKC QNH3035INS TX03/2119Z TNM02/2208Z LAST NO AMDS AFT 2204 NEXT 2311



MET'MAP, your aeronautical weather chart ! - Copyright ORBIFLY December 2007 - Disclaimer

ORBIFLY MET'MAP TEAM :

Programming & Development : Alexandra Zaïnal
Concept & original design : Baudouin d'Aumeries
Assistance for programming : Marc-Olivier Méhu
Technical & hardware support : Manuel Goepfert

Contact : metmap@orbifly.com




SOURCES & CREDITS :

   NOAA       Earth
Advisory